Airfield :
LOGIN :

Register | Disclaimer

   EN    FR    IT 

 










Legend :    VFR   Marginal VFR   IFR   Intensive IFR   Very Intensive IFR
Visi :
Ceiling :
>= 8 km
>= 3000ft
5 to 8 km
1000 to 3000 ft
1500m to 5 km
500 to 1000 ft
800 to 1500m
200 to 500 ft
< 800m
< 200 ft
Symbols :   Thunderstorms  Fog  Heavy snow  Heavy precipitations  Wind > 20 kt
SIGMETs :     Misc.  Thunderstorms  Icing  Turbulence  Mountain Waves  Volcanic Ashes






- Airport Elevation : 479 ft
- IATA code : DOL


LFRG - Deauville

CURRENT METAR :
  • 181930Z AUTO 18011KT 9999 FEW041 OVC220 05/03 Q1022 TEMPO 4000 RADZ BKN007 BECMG 22017G30KT

EXPIRED METARs :
  • 181900Z AUTO 19011KT 9999 FEW031 BKN045 BKN058 06/03 Q1022 TEMPO 4000 RADZ BKN007 BECMG 20015G25KT
  • 181830Z AUTO 19010KT 9999 BKN031 BKN047 OVC054 06/03 Q1022 TEMPO 4000 RADZ BKN007 BECMG 20015G25KT
  • 181800Z AUTO 19010KT 9999 OVC033 06/03 Q1023 TEMPO 4000 RADZ BKN007 BECMG 20015G25KT
  • 181730Z AUTO 19007KT 9999 BKN037 OVC043 06/03 Q1023 TEMPO 4000 RADZ BKN007 BECMG 20015G25KT
  • 181700Z AUTO 20008KT 9999 FEW030 SCT035 BKN140 06/02 Q1023 BECMG 20015G25KT

TAF TAF LFRG
Valid from the 18 at 15:00 until the 19 at 00:00 UTC


181400Z 1815/1824 22010KT 9999 BKN040
BECMG 1818/1821 20015G25KT
PROB30
TEMPO 1819/1821 4000 RADZ BKN007
BECMG 1821/1823 22017G30KT
ATIS : +33 2 31 65 65 36



MET'MAP, your aeronautical weather chart ! - Copyright ORBIFLY December 2007 - Disclaimer

ORBIFLY MET'MAP TEAM :

Programming & Development : Alexandra Zaïnal
Concept & original design : Baudouin d'Aumeries
Assistance for programming : Marc-Olivier Méhu
Technical & hardware support : Manuel Goepfert

Contact : metmap@orbifly.com




SOURCES & CREDITS :

   NOAA